Allentown, New York
Current Conditions -  °F | °C
As of 2:56 AM on Saturday 01 Nov 2014 (Local Time) from KELZ Reporting Station
Light Rain Light Rain  
Wind Chill: 33°   Ceiling: 600
Heat Index: 37°   Visibility: 10mi
Dew Point: 35°   Wind: 5mph
Humidity: 93%   Direction: 10°N
Pressure: 29.92"   Gusts: NA
Location:  42.08°N, 78.06°W
Report Text: KELZ 010656Z AUTO 01004KT 10SM -RA OVC006 03/02 A2992 RMK AO2 CIG 002V009 SLP146 P0001 T00280017
Loading
Personal Weather Stations






























Interactive Weather Map
Tropical Storm Tracking
New forecast layout! Learn more

10-Day Weather Forecast

Advertisements
Track Severe Weather on mobile